createdAt,value
2018-07-17T00:00:12.206Z,99954.63
2018-07-17T00:02:39.251Z,99957.80
2018-07-17T00:05:07.144Z,99951.98
2018-07-17T00:07:34.050Z,99945.67
2018-07-17T00:10:00.957Z,99936.34
2018-07-17T00:12:28.897Z,99931.32
2018-07-17T00:14:55.800Z,99936.82
2018-07-17T00:17:22.711Z,99942.34
2018-07-17T00:19:49.669Z,99946.84
2018-07-17T00:22:17.147Z,99948.02
2018-07-17T00:24:44.268Z,99944.12
2018-07-17T00:27:11.155Z,99941.16
2018-07-17T00:29:38.039Z,99939.75
2018-07-17T00:32:04.951Z,99941.23
2018-07-17T00:34:31.855Z,99950.70
2018-07-17T00:36:58.807Z,99943.77
2018-07-17T00:39:25.726Z,99943.43
2018-07-17T00:41:52.626Z,99942.70
2018-07-17T00:44:19.554Z,99947.19
2018-07-17T00:46:46.443Z,99945.98
2018-07-17T00:49:13.348Z,99950.69
2018-07-17T00:51:43.561Z,99948.61
2018-07-17T00:54:10.456Z,99945.56
2018-07-17T00:56:37.387Z,99945.22
2018-07-17T00:59:04.297Z,99946.08
2018-07-17T01:01:36.871Z,99947.04
2018-07-17T01:04:09.579Z,99946.27
2018-07-17T01:06:44.383Z,99953.80
2018-07-17T01:09:17.082Z,99952.83
2018-07-17T01:11:49.667Z,99947.27
2018-07-17T01:14:27.686Z,99947.63
2018-07-17T01:16:54.566Z,99950.28
2018-07-17T01:19:21.482Z,99950.24
2018-07-17T01:21:48.412Z,99947.30
2018-07-17T01:24:15.640Z,99949.84
2018-07-17T01:26:42.607Z,99948.72
2018-07-17T01:29:09.533Z,99947.86
2018-07-17T01:31:37.431Z,99955.78
2018-07-17T01:34:04.346Z,99948.97
2018-07-17T01:36:31.240Z,99954.80
2018-07-17T01:38:58.145Z,99949.16
2018-07-17T01:41:25.063Z,99952.23
2018-07-17T01:43:54.975Z,99946.12
2018-07-17T01:46:21.928Z,99947.47
2018-07-17T01:48:49.058Z,99948.45
2018-07-17T01:51:15.944Z,99946.58
2018-07-17T01:53:42.864Z,99949.92
2018-07-17T01:56:09.755Z,99940.09
2018-07-17T01:58:37.164Z,99944.44
2018-07-17T02:01:04.075Z,99940.83
2018-07-17T02:03:30.964Z,99944.30
2018-07-17T02:05:57.844Z,99950.48
2018-07-17T02:08:24.756Z,99950.64
2018-07-17T02:10:51.656Z,99948.41
2018-07-17T02:13:19.107Z,99947.83
2018-07-17T02:15:46.324Z,99951.21
2018-07-17T02:18:13.641Z,99957.98
2018-07-17T02:20:40.686Z,99954.80
2018-07-17T02:23:11.039Z,99956.14
2018-07-17T02:25:38.003Z,99961.16
2018-07-17T02:28:04.953Z,99961.24
2018-07-17T02:30:31.906Z,99959.42
2018-07-17T02:32:58.846Z,99957.16
2018-07-17T02:35:25.790Z,99960.93
2018-07-17T02:37:52.751Z,99959.44
2018-07-17T02:40:19.720Z,99971.42
2018-07-17T02:42:46.654Z,99966.23
2018-07-17T02:45:13.548Z,99965.52
2018-07-17T02:47:40.449Z,99972.41
2018-07-17T02:50:08.044Z,99975.62
2018-07-17T02:52:34.932Z,99982.23
2018-07-17T02:55:01.836Z,99980.98
2018-07-17T02:57:28.732Z,99983.41
2018-07-17T02:59:55.673Z,99986.78
2018-07-17T03:02:22.589Z,99983.95
2018-07-17T03:04:49.557Z,99980.29
2018-07-17T03:07:16.441Z,99989.53
2018-07-17T03:09:43.331Z,99992.73
2018-07-17T03:12:10.242Z,99993.48
2018-07-17T03:14:37.255Z,99990.52
2018-07-17T03:17:04.208Z,99983.63
2018-07-17T03:19:31.119Z,99985.50
2018-07-17T03:21:58.016Z,99992.02
2018-07-17T03:24:24.972Z,99991.80
2018-07-17T03:26:51.850Z,99985.09
2018-07-17T03:29:19.925Z,99985.60
2018-07-17T03:31:46.869Z,99990.52
2018-07-17T03:34:14.736Z,99990.86
2018-07-17T03:36:41.642Z,99992.14
2018-07-17T03:39:08.519Z,99989.58
2018-07-17T03:41:35.487Z,99993.59
2018-07-17T03:44:02.435Z,99991.84
2018-07-17T03:46:29.351Z,99991.78
2018-07-17T03:48:56.245Z,99995.91
2018-07-17T03:51:23.147Z,99993.72
2018-07-17T03:53:53.149Z,99992.09
2018-07-17T03:56:20.050Z,99998.47
2018-07-17T03:58:46.940Z,100002.59
2018-07-17T04:01:13.851Z,100001.47
2018-07-17T04:03:40.764Z,100006.39
2018-07-17T04:06:07.678Z,100005.47
2018-07-17T04:08:34.605Z,100002.25
2018-07-17T04:11:01.701Z,100003.95
2018-07-17T04:13:28.641Z,99999.09
2018-07-17T04:15:57.263Z,100006.05
2018-07-17T04:18:24.170Z,100000.95
2018-07-17T04:20:51.084Z,99998.25
2018-07-17T04:23:18.015Z,99996.17
2018-07-17T04:25:44.933Z,99993.06
2018-07-17T04:28:11.836Z,99990.81
2018-07-17T04:30:38.738Z,99988.88
2018-07-17T04:33:05.665Z,99987.52
2018-07-17T04:35:32.588Z,99997.12
2018-07-17T04:37:59.500Z,100005.87
2018-07-17T04:40:26.487Z,100012.31
2018-07-17T04:42:53.404Z,100014.31
2018-07-17T04:45:20.336Z,100017.58
2018-07-17T04:47:47.241Z,100024.49
2018-07-17T04:50:14.159Z,100027.88
2018-07-17T04:52:41.234Z,100035.60
2018-07-17T04:55:08.201Z,100034.34
2018-07-17T04:57:35.107Z,100032.22
2018-07-17T05:00:02.024Z,100031.55
2018-07-17T05:02:28.931Z,100036.27
2018-07-17T05:04:55.827Z,100042.44
2018-07-17T05:07:22.780Z,100044.17
2018-07-17T05:09:49.754Z,100045.80
2018-07-17T05:12:16.663Z,100040.92
2018-07-17T05:14:43.619Z,100043.63
2018-07-17T05:17:10.543Z,100047.42
2018-07-17T05:19:37.450Z,100051.69
2018-07-17T05:22:04.351Z,100047.87
2018-07-17T05:24:31.407Z,100044.74
2018-07-17T05:26:58.359Z,100048.41
2018-07-17T05:29:25.290Z,100040.72
2018-07-17T05:31:52.175Z,100051.63
2018-07-17T05:34:19.122Z,100049.34
2018-07-17T05:36:46.050Z,100054.11
2018-07-17T05:39:12.928Z,100058.81
2018-07-17T05:41:39.819Z,100060.64
2018-07-17T05:44:06.784Z,100055.44
2018-07-17T05:46:33.857Z,100054.11
2018-07-17T05:49:00.719Z,100051.91
2018-07-17T05:51:27.611Z,100053.82
2018-07-17T05:53:54.799Z,100061.69
2018-07-17T05:56:21.703Z,100061.24
2018-07-17T05:58:48.632Z,100061.50
2018-07-17T06:01:15.570Z,100065.50
2018-07-17T06:03:42.476Z,100059.94
2018-07-17T06:06:09.382Z,100062.41
2018-07-17T06:08:36.343Z,100068.87
2018-07-17T06:11:03.356Z,100068.17
2018-07-17T06:13:30.294Z,100068.67
2018-07-17T06:15:57.205Z,100071.32
2018-07-17T06:18:25.691Z,100072.45
2018-07-17T06:20:53.625Z,100067.64
2018-07-17T06:23:20.536Z,100074.58
2018-07-17T06:25:47.458Z,100069.12
2018-07-17T06:28:14.388Z,100066.99
2018-07-17T06:30:41.369Z,100068.09
2018-07-17T06:33:08.352Z,100072.95
2018-07-17T06:35:35.232Z,100064.24
2018-07-17T06:38:02.142Z,100064.35
2018-07-17T06:40:29.106Z,100066.09
2018-07-17T06:42:56.023Z,100061.77
2018-07-17T06:45:22.963Z,100070.88
2018-07-17T06:47:49.888Z,100074.16
2018-07-17T06:50:17.237Z,100078.09
2018-07-17T06:52:44.278Z,100079.26
2018-07-17T06:55:11.334Z,100071.23
2018-07-17T06:57:38.215Z,100072.37
2018-07-17T07:00:05.182Z,100074.31
2018-07-17T07:02:32.081Z,100066.98
2018-07-17T07:04:59.007Z,100076.80
2018-07-17T07:07:25.944Z,100077.76
2018-07-17T07:09:52.839Z,100075.31
2018-07-17T07:12:19.757Z,100082.62
2018-07-17T07:14:46.661Z,100079.64
2018-07-17T07:17:13.740Z,100072.68
2018-07-17T07:19:40.637Z,100070.77
2018-07-17T07:22:07.563Z,100073.27
2018-07-17T07:24:34.498Z,100075.47
2018-07-17T07:27:01.401Z,100074.31
2018-07-17T07:29:28.332Z,100065.84
2018-07-17T07:31:55.263Z,100068.44
2018-07-17T07:34:22.155Z,100066.70
2018-07-17T07:36:49.543Z,100064.56
2018-07-17T07:39:16.469Z,100066.48
2018-07-17T07:41:43.364Z,100069.73
2018-07-17T07:44:10.593Z,100067.87
2018-07-17T07:46:37.539Z,100074.46
2018-07-17T07:49:04.619Z,100071.03
2018-07-17T07:51:31.481Z,100072.19
2018-07-17T07:53:58.433Z,100075.23
2018-07-17T07:56:25.476Z,100073.55
2018-07-17T07:58:52.768Z,100074.30
2018-07-17T08:01:20.420Z,100073.30
2018-07-17T08:03:47.453Z,100071.94
2018-07-17T08:06:14.392Z,100070.92
2018-07-17T08:08:42.781Z,100066.11
2018-07-17T08:11:09.703Z,100066.05
2018-07-17T08:13:36.865Z,100067.46
2018-07-17T08:16:03.780Z,100058.50
2018-07-17T08:18:30.720Z,100063.45
2018-07-17T08:20:57.640Z,100065.94
2018-07-17T08:23:24.567Z,100070.67
2018-07-17T08:25:51.486Z,100071.43
2018-07-17T08:28:18.480Z,100074.06
2018-07-17T08:30:45.387Z,100071.55
2018-07-17T08:33:12.303Z,100068.95
2018-07-17T08:35:39.223Z,100068.79
2018-07-17T08:38:06.368Z,100063.06
2018-07-17T08:40:33.311Z,100078.45
2018-07-17T08:43:00.221Z,100080.45
2018-07-17T08:45:27.120Z,100076.38
2018-07-17T08:47:54.049Z,100081.78
2018-07-17T08:50:20.986Z,100073.77
2018-07-17T08:52:47.929Z,100073.56
2018-07-17T08:55:14.828Z,100087.64
2018-07-17T08:57:41.759Z,100070.89
2018-07-17T09:00:08.715Z,100083.39
2018-07-17T09:02:36.035Z,100072.75
2018-07-17T09:05:03.954Z,100083.38
2018-07-17T09:07:31.816Z,100085.14
2018-07-17T09:09:58.773Z,100076.98
2018-07-17T09:12:25.719Z,100083.42
2018-07-17T09:14:52.612Z,100078.65
2018-07-17T09:17:19.562Z,100082.06
2018-07-17T09:19:46.481Z,100078.38
2018-07-17T09:22:13.402Z,100086.37
2018-07-17T09:24:40.624Z,100087.20
2018-07-17T09:27:07.646Z,100082.16
2018-07-17T09:29:34.572Z,100089.34
2018-07-17T09:32:01.487Z,100086.31
2018-07-17T09:34:28.376Z,100079.03
2018-07-17T09:36:55.331Z,100083.14
2018-07-17T09:39:22.303Z,100084.02
2018-07-17T09:41:49.247Z,100082.42
2018-07-17T09:44:16.144Z,100087.33
2018-07-17T09:46:43.031Z,100089.52
2018-07-17T09:49:09.996Z,100080.98
2018-07-17T09:51:36.921Z,100089.85
2018-07-17T09:54:03.887Z,100083.68
2018-07-17T09:56:30.780Z,100085.89
2018-07-17T09:58:57.711Z,100092.83
2018-07-17T10:01:30.440Z,100092.34
2018-07-17T10:03:57.348Z,100081.84
2018-07-17T10:06:24.358Z,100083.71
2018-07-17T10:08:51.222Z,100074.63
2018-07-17T10:11:18.151Z,100073.39
2018-07-17T10:13:45.113Z,100082.66
2018-07-17T10:16:12.051Z,100082.91
2018-07-17T10:18:38.935Z,100075.77
2018-07-17T10:21:06.396Z,100073.91
2018-07-17T10:23:33.320Z,100070.05
2018-07-17T10:26:00.258Z,100062.61
2018-07-17T10:28:27.191Z,100073.02
2018-07-17T10:30:54.148Z,100067.28
2018-07-17T10:33:21.159Z,100075.40
2018-07-17T10:35:48.467Z,100064.51
2018-07-17T10:38:15.443Z,100061.72
2018-07-17T10:40:42.349Z,100064.60
2018-07-17T10:43:09.681Z,100058.85
2018-07-17T10:45:36.611Z,100055.86
2018-07-17T10:48:03.517Z,100055.98
2018-07-17T10:50:30.465Z,100048.38
2018-07-17T10:52:57.376Z,100044.91
2018-07-17T10:55:24.362Z,100045.31
2018-07-17T10:57:51.267Z,100047.30
2018-07-17T11:00:19.007Z,100045.66
2018-07-17T11:02:45.936Z,100033.41
2018-07-17T11:05:12.911Z,100046.56
2018-07-17T11:07:39.913Z,100047.00
2018-07-17T11:10:06.806Z,100040.50
2018-07-17T11:12:33.760Z,100035.96
2018-07-17T11:15:00.690Z,100038.66
2018-07-17T11:17:27.603Z,100044.73
2018-07-17T11:19:54.541Z,100043.27
2018-07-17T11:22:21.431Z,100038.41
2018-07-17T11:24:48.403Z,100037.20
2018-07-17T11:27:15.326Z,100036.09
2018-07-17T11:29:42.264Z,100026.34
2018-07-17T11:32:09.171Z,100022.86
2018-07-17T11:34:37.019Z,100007.55
2018-07-17T11:37:04.040Z,100011.26
2018-07-17T11:39:31.134Z,100009.49
2018-07-17T11:41:58.031Z,99998.97
2018-07-17T11:44:24.966Z,99999.16
2018-07-17T11:46:51.850Z,99996.10
2018-07-17T11:49:18.765Z,99986.78
2018-07-17T11:51:45.671Z,99997.67
2018-07-17T11:54:12.606Z,99989.69
2018-07-17T11:56:39.521Z,99992.22
2018-07-17T11:59:06.554Z,100001.74
2018-07-17T12:01:33.422Z,99998.90
2018-07-17T12:04:00.358Z,99995.85
2018-07-17T12:06:27.263Z,99984.77
2018-07-17T12:08:54.173Z,99986.37
2018-07-17T12:11:21.068Z,99985.68
2018-07-17T12:13:48.084Z,99988.73
2018-07-17T12:16:14.972Z,99995.13
2018-07-17T12:18:41.905Z,99984.36
2018-07-17T12:21:08.849Z,99980.79
2018-07-17T12:23:35.786Z,99973.80
2018-07-17T12:26:02.703Z,99988.42
2018-07-17T12:28:29.591Z,99980.24
2018-07-17T12:30:56.562Z,99984.03
2018-07-17T12:33:23.448Z,99988.75
2018-07-17T12:35:50.377Z,99987.64
2018-07-17T12:38:17.277Z,99978.69
2018-07-17T12:40:44.169Z,100004.97
2018-07-17T12:43:11.116Z,100012.73
2018-07-17T12:45:38.027Z,100010.69
2018-07-17T12:48:04.962Z,100022.33
2018-07-17T12:50:31.867Z,100037.08
2018-07-17T12:52:58.795Z,100059.09
2018-07-17T12:55:26.704Z,100065.72
2018-07-17T12:57:53.600Z,100061.13
2018-07-17T13:00:20.520Z,100077.98
2018-07-17T13:02:47.473Z,100065.31
2018-07-17T13:05:14.384Z,100078.55
2018-07-17T13:07:41.375Z,100084.52
2018-07-17T13:10:08.282Z,100086.69
2018-07-17T13:12:35.205Z,100098.77
2018-07-17T13:15:02.567Z,100088.01
2018-07-17T13:17:29.544Z,100104.09
2018-07-17T13:19:56.377Z,100096.86
2018-07-17T13:22:23.308Z,100102.85
2018-07-17T13:24:50.244Z,100088.20
2018-07-17T13:27:17.151Z,100086.51
2018-07-17T13:29:44.064Z,100099.44
2018-07-17T13:32:10.971Z,100106.15
2018-07-17T13:34:37.877Z,100104.98
2018-07-17T13:37:04.785Z,100096.62
2018-07-17T13:39:31.698Z,100097.33
2018-07-17T13:41:58.635Z,100097.69
2018-07-17T13:44:25.535Z,100101.31
2018-07-17T13:46:52.437Z,100102.42
2018-07-17T13:49:19.339Z,100083.94
2018-07-17T13:51:46.331Z,100093.53
2018-07-17T13:54:17.019Z,100082.94
2018-07-17T13:56:43.955Z,100089.89
2018-07-17T13:59:10.900Z,100081.59
2018-07-17T14:01:37.807Z,100083.09
2018-07-17T14:04:04.809Z,100076.95
2018-07-17T14:06:31.819Z,100073.47
2018-07-17T14:08:58.709Z,100067.14
2018-07-17T14:11:25.640Z,100068.37
2018-07-17T14:13:52.615Z,100060.78
2018-07-17T14:16:19.532Z,100054.98
2018-07-17T14:18:46.455Z,100054.55
2018-07-17T14:21:13.351Z,100050.06
2018-07-17T14:23:40.357Z,100044.44
2018-07-17T14:26:07.262Z,100031.16
2018-07-17T14:28:34.172Z,100032.36
2018-07-17T14:31:01.067Z,100036.87
2018-07-17T14:33:27.983Z,100030.92
2018-07-17T14:35:54.953Z,100030.95
2018-07-17T14:38:22.790Z,100035.27
2018-07-17T14:40:49.704Z,100021.25
2018-07-17T14:43:16.630Z,100026.23
2018-07-17T14:45:43.547Z,100022.48
2018-07-17T14:48:10.473Z,100021.24
2018-07-17T14:50:37.371Z,100011.16
2018-07-17T14:53:04.291Z,100014.47
2018-07-17T14:55:31.207Z,100018.38
2018-07-17T14:57:58.161Z,100016.59
2018-07-17T15:00:25.081Z,100021.52
2018-07-17T15:02:52.021Z,100017.84
2018-07-17T15:05:18.932Z,100016.53
2018-07-17T15:07:45.827Z,100016.33
2018-07-17T15:10:12.737Z,100025.00
2018-07-17T15:12:39.640Z,100019.30
2018-07-17T15:15:06.796Z,100024.94
2018-07-17T15:17:33.728Z,100022.65
2018-07-17T15:20:00.671Z,100025.97
2018-07-17T15:22:27.770Z,100027.78
2018-07-17T15:24:54.819Z,100025.16
2018-07-17T15:27:21.751Z,100018.61
2018-07-17T15:29:48.670Z,100021.66
2018-07-17T15:32:15.614Z,100024.97
2018-07-17T15:34:42.514Z,100026.44
2018-07-17T15:37:09.426Z,100022.28
2018-07-17T15:39:36.357Z,100017.41
2018-07-17T15:42:03.289Z,100023.05
2018-07-17T15:44:30.201Z,100023.27
2018-07-17T15:46:57.147Z,100031.61
2018-07-17T15:49:24.052Z,100031.97
2018-07-17T15:51:50.998Z,100041.00
2018-07-17T15:54:17.926Z,100039.02
2018-07-17T15:56:44.819Z,100038.48
2018-07-17T15:59:11.724Z,100036.71
2018-07-17T16:01:38.644Z,100040.39
2018-07-17T16:04:05.536Z,100045.59
2018-07-17T16:06:32.506Z,100044.60
2018-07-17T16:08:59.413Z,100047.78
2018-07-17T16:11:26.319Z,100047.25
2018-07-17T16:13:53.411Z,100048.02
2018-07-17T16:16:23.492Z,100055.43
2018-07-17T16:18:50.420Z,100064.02
2018-07-17T16:21:17.386Z,100061.48
2018-07-17T16:23:44.277Z,100065.06
2018-07-17T16:26:11.179Z,100056.39
2018-07-17T16:28:39.058Z,100060.00
2018-07-17T16:31:06.008Z,100049.05
2018-07-17T16:33:32.922Z,100047.42
2018-07-17T16:35:59.874Z,100040.50
2018-07-17T16:38:37.859Z,100047.95
2018-07-17T16:41:05.002Z,100046.97
2018-07-17T16:43:31.902Z,100047.92
2018-07-17T16:45:58.819Z,100044.86
2018-07-17T16:48:25.723Z,100040.12
2018-07-17T16:50:52.648Z,100040.36
2018-07-17T16:53:19.568Z,100041.30
2018-07-17T16:55:46.464Z,100038.28
2018-07-17T16:58:13.361Z,100035.14
2018-07-17T17:00:40.252Z,100035.58
2018-07-17T17:03:07.151Z,100035.58
2018-07-17T17:05:34.044Z,100035.01
2018-07-17T17:08:01.043Z,100027.97
2018-07-17T17:10:27.961Z,100034.02
2018-07-17T17:12:54.862Z,100026.80
2018-07-17T17:15:21.733Z,100034.31
2018-07-17T17:17:48.657Z,100026.89
2018-07-17T17:20:15.548Z,100031.22
2018-07-17T17:22:42.471Z,100041.83
2018-07-17T17:25:09.393Z,100028.98
2018-07-17T17:27:36.253Z,100031.80
2018-07-17T17:30:03.218Z,100028.11
2018-07-17T17:32:30.122Z,100030.03
2018-07-17T17:34:57.017Z,100025.75
2018-07-17T17:37:23.915Z,100026.78
2018-07-17T17:39:50.870Z,100031.91
2018-07-17T17:42:17.714Z,100033.39
2018-07-17T17:44:44.615Z,100039.19
2018-07-17T17:47:11.499Z,100038.28
2018-07-17T17:49:39.366Z,100037.25
2018-07-17T17:52:06.237Z,100042.01
2018-07-17T17:54:36.363Z,100045.99
2018-07-17T17:57:03.265Z,100045.20
2018-07-17T17:59:30.196Z,100055.77
2018-07-17T18:01:57.124Z,100053.74
2018-07-17T18:04:24.090Z,100055.61
2018-07-17T18:06:51.011Z,100059.22
2018-07-17T18:09:17.927Z,100060.08
2018-07-17T18:11:44.839Z,100060.88
2018-07-17T18:14:11.752Z,100062.94
2018-07-17T18:16:38.643Z,100069.35
2018-07-17T18:19:08.755Z,100070.50
2018-07-17T18:21:35.669Z,100079.38
2018-07-17T18:24:02.551Z,100086.05
2018-07-17T18:26:29.436Z,100083.39
2018-07-17T18:28:56.354Z,100081.89
2018-07-17T18:31:23.248Z,100080.17
2018-07-17T18:33:50.153Z,100086.17
2018-07-17T18:36:17.047Z,100083.73
2018-07-17T18:38:43.939Z,100088.84
2018-07-17T18:41:10.844Z,100085.33
2018-07-17T18:43:37.758Z,100087.48
2018-07-17T18:46:04.838Z,100083.73
2018-07-17T18:48:31.747Z,100086.39
2018-07-17T18:50:58.677Z,100094.13
2018-07-17T18:53:25.626Z,100093.80
2018-07-17T18:55:52.550Z,100088.14
2018-07-17T18:58:19.450Z,100096.69
2018-07-17T19:00:46.373Z,100096.92
2018-07-17T19:03:13.391Z,100103.00
2018-07-17T19:05:41.305Z,100106.67
2018-07-17T19:08:08.231Z,100109.42
2018-07-17T19:10:35.140Z,100116.25
2018-07-17T19:13:02.052Z,100122.27
2018-07-17T19:15:28.976Z,100126.69
2018-07-17T19:17:55.908Z,100129.30
2018-07-17T19:20:22.854Z,100133.91
2018-07-17T19:22:49.762Z,100138.06
2018-07-17T19:25:16.672Z,100150.32
2018-07-17T19:27:43.573Z,100155.50
2018-07-17T19:30:10.478Z,100159.66
2018-07-17T19:32:37.419Z,100163.15
2018-07-17T19:35:04.377Z,100158.07
2018-07-17T19:37:31.293Z,100155.87
2018-07-17T19:39:58.214Z,100151.31
2018-07-17T19:42:25.159Z,100154.96
2018-07-17T19:44:52.104Z,100154.70
2018-07-17T19:47:19.031Z,100163.41
2018-07-17T19:52:12.929Z,100169.89
2018-07-17T19:54:41.093Z,100172.05
2018-07-17T19:57:08.012Z,100178.64
2018-07-17T19:59:35.024Z,100177.52
2018-07-17T20:02:01.976Z,100179.38
2018-07-17T20:04:28.880Z,100179.63
2018-07-17T20:06:55.946Z,100185.13
2018-07-17T20:09:23.069Z,100190.88
2018-07-17T20:11:50.002Z,100190.16
2018-07-17T20:14:17.836Z,100186.27
2018-07-17T20:16:44.736Z,100190.59
2018-07-17T20:19:11.632Z,100178.12
2018-07-17T20:21:38.555Z,100185.61
2018-07-17T20:24:05.462Z,100193.79
2018-07-17T20:26:32.407Z,100202.42
2018-07-17T20:28:59.341Z,100204.58
2018-07-17T20:31:27.489Z,100202.73
2018-07-17T20:33:54.311Z,100199.66
2018-07-17T20:36:21.978Z,100205.10
2018-07-17T20:38:48.981Z,100207.52
2018-07-17T20:41:16.004Z,100211.28
2018-07-17T20:43:43.858Z,100217.80
2018-07-17T20:46:10.867Z,100207.53
2018-07-17T20:48:37.767Z,100219.09
2018-07-17T20:51:04.675Z,100217.33
2018-07-17T20:53:31.567Z,100218.10
2018-07-17T20:56:01.545Z,100221.89
2018-07-17T20:58:28.452Z,100216.30
2018-07-17T21:00:55.395Z,100221.70
2018-07-17T21:03:22.315Z,100214.87
2018-07-17T21:05:49.215Z,100213.39
2018-07-17T21:08:16.123Z,100212.65
2018-07-17T21:10:43.040Z,100211.70
2018-07-17T21:13:10.008Z,100226.69
2018-07-17T21:15:36.818Z,100225.75
2018-07-17T21:18:03.713Z,100227.98
2018-07-17T21:20:30.619Z,100233.01
2018-07-17T21:22:57.522Z,100233.58
2018-07-17T21:25:24.490Z,100233.58
2018-07-17T21:27:51.645Z,100237.41
2018-07-17T21:30:18.548Z,100232.55
2018-07-17T21:32:45.448Z,100235.43
2018-07-17T21:35:12.349Z,100237.43
2018-07-17T21:37:39.246Z,100238.08
2018-07-17T21:40:06.144Z,100239.83
2018-07-17T21:42:33.027Z,100247.58
2018-07-17T21:44:59.907Z,100247.42
2018-07-17T21:47:26.821Z,100244.05
2018-07-17T21:49:53.759Z,100244.35
2018-07-17T21:52:20.884Z,100242.17
2018-07-17T21:54:48.006Z,100245.31
2018-07-17T21:57:14.947Z,100244.82
2018-07-17T21:59:41.839Z,100247.63
2018-07-17T22:04:57.700Z,100251.15
2018-07-17T22:07:24.575Z,100251.06
2018-07-17T22:12:43.887Z,100257.80
2018-07-17T22:15:10.775Z,100259.77
2018-07-17T22:17:37.624Z,100256.95
2018-07-17T22:20:04.666Z,100255.94
2018-07-17T22:22:31.520Z,100251.38
2018-07-17T22:24:59.415Z,100251.11
2018-07-17T22:27:26.274Z,100259.16
2018-07-17T22:29:53.172Z,100258.20
2018-07-17T22:32:20.029Z,100261.11
2018-07-17T22:34:46.875Z,100275.03
2018-07-17T22:37:13.891Z,100296.56
2018-07-17T22:39:40.727Z,100302.56
2018-07-17T22:42:08.273Z,100303.09
2018-07-17T22:44:35.099Z,100289.19
2018-07-17T22:47:01.967Z,100291.53
2018-07-17T22:49:28.836Z,100299.59
2018-07-17T22:51:55.702Z,100312.94
2018-07-17T22:54:23.440Z,100314.59
2018-07-17T22:56:50.331Z,100308.88
2018-07-17T22:59:18.207Z,100297.92
2018-07-17T23:01:45.178Z,100290.47
2018-07-17T23:04:12.048Z,100286.88
2018-07-17T23:06:38.973Z,100284.28
2018-07-17T23:09:07.659Z,100280.77
2018-07-17T23:11:34.556Z,100284.20
2018-07-17T23:14:01.408Z,100291.86
2018-07-17T23:16:28.274Z,100301.42
2018-07-17T23:18:55.139Z,100302.28
2018-07-17T23:21:22.003Z,100308.95
2018-07-17T23:23:48.888Z,100298.00
2018-07-17T23:26:15.747Z,100298.41
2018-07-17T23:28:42.599Z,100300.03
2018-07-17T23:31:09.524Z,100301.05
2018-07-17T23:33:36.415Z,100301.14
2018-07-17T23:36:03.277Z,100304.38
2018-07-17T23:38:30.795Z,100302.45
2018-07-17T23:40:57.650Z,100307.00
2018-07-17T23:43:26.419Z,100307.52
2018-07-17T23:45:53.279Z,100307.02
2018-07-17T23:48:20.156Z,100305.05
2018-07-17T23:50:47.031Z,100308.82
2018-07-17T23:53:13.933Z,100307.72
2018-07-17T23:55:41.195Z,100307.31
2018-07-17T23:58:08.055Z,100307.52
